• Join FlightAware (Why Join?)
  • Login
  • US Flag 
05:11AM EDT


 

Airport Tracker/Info


-or-


 

Live Flight TrackerFlight Track Log ✈ CNS13 ✈ 16-May-2013 ✈ KACK - KPSM

Flight Track Log - Related Links

Times and Time Zones

All times are in EDT time to prevent confusion due to time zone crossing. See the CNS13 flight status page for this flight to view local times or setup timezone preferences in your user account.

Time Position Orientation Groundspeed Altitude Reporting Facility
EDT Latitude Longitude Course Direction KTS MPH feet Rate Location/Type
05:13PM 41.6667 -70.2586 321° Northwest 250 288 10,500  Level Boston Center
05:14PM 41.7256 -70.2844 342° North 239 275 10,600  Climbing Boston Center
05:15PM 41.7864 -70.3072 344° North 227 261 10,600  Level Boston Center
05:16PM 41.8408 -70.3306 342° North 222 255 10,600  Level Boston Center
05:17PM 41.7923 -70.2810 343° North  Level Estimated
05:17PM 41.8997 -70.3536 344° North 217 250 10,600  Level Boston Center
05:18PM 41.8462 -70.3032 343° North  Level Estimated
05:18PM 41.9564 -70.3742 345° North 217 250 10,600  Level Boston Center
05:19PM 41.8908 -70.3513 321° Northwest  Level FlightAware Approximate
05:19PM 42.0000 -70.3833 351° North 214 246 10,400  Level KA90
05:20PM 42.0500 -70.4000 346° North 220 253 10,500  Climbing KA90
05:21PM 42.1000 -70.4333 334° Northwest 216 249 10,500  Level KA90
05:22PM 42.1667 -70.4500 350° North 213 245 10,500  Level KA90
05:23PM 42.2167 -70.4667 346° North 216 249 10,500  Level KA90
05:24PM 42.2833 -70.5000 340° North 216 249 10,500  Level KA90
05:25PM 42.3333 -70.5167 346° North 218 251 10,500  Level KA90
05:26PM 42.4000 -70.5500 340° North 225 259 10,500 -120 Level KA90
05:26PM 42.4222 -70.5586 344° North 211 243 10,400 -480 Descending Boston Center
05:27PM 42.4853 -70.5819 345° North 216 249 9,900 -780 Descending Boston Center
05:28PM 42.5481 -70.6053 345° North 227 261 8,900 -960 Descending Boston Center
05:29PM 42.6047 -70.6292 343° North 227 261 8,000 -840 Descending Boston Center
05:30PM 42.6489 -70.6506 340° North 194 223 7,300 -780 Descending Boston Center
05:31PM 42.7056 -70.6742 343° North 181 208 6,500 -840 Descending Boston Center
05:33PM 42.8000 -70.6667 North 204 235 5,200 -840 Descending KA90
05:34PM 42.8500 -70.6500 14° North 193 222 4,300 -840 Descending KA90
05:35PM 42.9000 -70.6667 346° North 163 188 3,500 -600 Descending KA90
05:36PM 42.9333 -70.7000 324° Northwest 147 169 3,100 -600 Descending KA90
05:37PM 42.9667 -70.7167 340° North 135 155 2,500 -720 Descending KA90
05:38PM 43.0000 -70.7500 324° Northwest 125 144 1,800 -720 Descending KA90
05:39PM 43.0167 -70.7833 304° West 124 143 1,100 -660 Descending KA90
05:40PM 43.0500 -70.8000 340° North 106 122 500 -600 Descending KA90
05:42PM 43.0667 -70.8167 340° North  Level FlightAware Approximate
05:49PM 43.0779 -70.8233 340° North  Level Estimated